Time;durP1;ratioP1;P1;durP2;ratioP2;P2;SDS_P1;SDS_P2;PMS_P1;PMS_P2;Temp;Humidity;BMP_temperature;BMP_pressure;BME280_temperature;BME280_humidity;BME280_pressure;Samples;Min_cycle;Max_cycle;Signal;HPM_P1;HPM_P2
2022/08/18 00:00:00;;;;;;;58.80;34.65;;;16.20;99.90;;;15.60;100.00;101076.84;4128710;28;20122;-75
2022/08/18 00:02:11;;;;;;;57.17;33.65;;;16.20;99.90;;;15.49;100.00;101062.16;4128290;28;20031;-75
2022/08/18 00:04:12;;;;;;;54.20;34.10;;;16.20;99.90;;;15.42;100.00;101056.72;4118935;28;20573;-75
2022/08/18 00:06:13;;;;;;;52.28;33.55;;;16.20;99.90;;;15.54;100.00;101069.59;4119294;28;20027;-75
2022/08/18 00:08:14;;;;;;;54.78;33.05;;;16.20;99.90;;;15.36;100.00;101049.44;4120627;28;20031;-75
2022/08/18 00:10:14;;;;;;;51.33;32.42;;;16.20;99.90;;;15.39;100.00;101058.88;4120480;28;20026;-75
2022/08/18 00:12:25;;;;;;;50.22;33.63;;;16.20;99.90;;;15.40;100.00;101053.41;4102937;29;20023;-75
2022/08/18 00:14:26;;;;;;;55.95;34.30;;;16.10;99.90;;;15.40;100.00;101055.25;4120321;28;20034;-75
2022/08/18 00:16:26;;;;;;;51.88;34.05;;;16.10;99.90;;;15.52;100.00;101068.94;4119176;28;20085;-75
2022/08/18 00:18:27;;;;;;;50.13;32.20;;;16.20;99.90;;;15.47;100.00;101062.34;4119926;28;20074;-75
2022/08/18 00:20:28;;;;;;;52.10;33.83;;;16.20;99.90;;;15.41;100.00;101049.72;4118908;28;20503;-75
2022/08/18 00:22:29;;;;;;;51.50;33.45;;;16.10;99.90;;;15.35;100.00;101042.47;4120262;28;20394;-75
2022/08/18 00:24:30;;;;;;;55.53;33.58;;;16.10;99.90;;;15.28;100.00;101040.72;4110880;28;20051;-75
2022/08/18 00:26:31;;;;;;;56.08;36.05;;;16.10;99.90;;;15.33;100.00;101038.34;4119059;28;20038;-75
2022/08/18 00:28:32;;;;;;;61.45;34.35;;;16.10;99.90;;;15.44;100.00;101064.53;4120068;28;20517;-75
2022/08/18 00:30:33;;;;;;;53.58;32.08;;;16.10;99.90;;;15.43;100.00;101065.50;4119126;28;20041;-75
2022/08/18 00:32:39;;;;;;;61.47;34.63;;;16.10;99.90;;;15.28;100.00;101046.88;4120228;28;20027;-75
2022/08/18 00:34:41;;;;;;;65.53;37.17;;;16.10;99.90;;;15.39;100.00;101057.06;4118998;28;20518;-75
2022/08/18 00:36:42;;;;;;;55.13;33.33;;;16.00;99.90;;;15.38;100.00;101062.56;4120139;28;20088;-75
2022/08/18 00:38:43;;;;;;;58.75;35.03;;;16.00;99.90;;;15.22;100.00;101047.59;4120320;28;20158;-75
2022/08/18 00:40:48;;;;;;;52.95;34.05;;;16.00;99.90;;;15.29;100.00;101069.75;4120040;28;20059;-75
2022/08/18 00:42:56;;;;;;;56.15;34.85;;;16.00;99.90;;;15.28;100.00;101067.31;4118855;28;20031;-75
2022/08/18 00:45:04;;;;;;;47.45;31.58;;;16.00;99.90;;;15.23;100.00;101059.03;4120135;28;20023;-75
2022/08/18 00:47:05;;;;;;;51.22;31.10;;;16.00;99.90;;;15.11;100.00;101031.25;4120158;28;20039;-75
2022/08/18 00:49:06;;;;;;;47.63;32.28;;;16.00;99.90;;;15.13;100.00;101043.34;4119737;28;20173;-75
2022/08/18 00:51:35;;;;;;;54.47;33.85;;;15.90;99.90;;;15.29;100.00;101077.75;4119811;28;20038;-75
2022/08/18 00:53:48;;;;;;;50.55;33.65;;;15.90;99.90;;;15.25;100.00;101068.50;4126856;28;20030;-75
2022/08/18 00:55:50;;;;;;;52.63;33.70;;;15.90;99.90;;;15.22;100.00;101068.84;4134745;28;20064;-75
2022/08/18 00:58:00;;;;;;;54.83;34.25;;;16.00;99.90;;;15.20;100.00;101062.84;4136351;28;20022;-75
2022/08/18 01:00:10;;;;;;;51.35;33.70;;;15.90;99.90;;;15.10;100.00;101054.31;4134876;28;20022;-75
2022/08/18 01:02:30;;;;;;;53.10;34.50;;;15.90;99.90;;;15.14;100.00;101058.25;4134823;28;20034;-75
2022/08/18 01:04:48;;;;;;;51.08;33.03;;;15.90;99.90;;;15.17;100.00;101060.56;4135880;28;20041;-75
2022/08/18 01:06:57;;;;;;;54.00;32.60;;;15.90;99.90;;;15.04;100.00;101044.41;4135042;28;20019;-75
2022/08/18 01:08:58;;;;;;;50.28;33.78;;;15.90;99.90;;;15.24;100.00;101077.47;4120708;28;20113;-75
2022/08/18 01:11:01;;;;;;;52.20;33.38;;;15.90;99.90;;;15.14;100.00;101055.59;4134648;28;20053;-75
2022/08/18 01:13:02;;;;;;;49.60;31.77;;;15.90;99.90;;;15.20;100.00;101064.72;4118776;28;20045;-75
2022/08/18 01:15:04;;;;;;;50.80;32.78;;;15.90;99.90;;;15.16;100.00;101053.59;4114798;28;20394;-75
2022/08/18 01:21:56;;;;;;;48.70;31.70;;;15.80;99.90;;;15.14;100.00;101054.78;4119015;28;20037;-75
2022/08/18 01:23:57;;;;;;;57.22;33.40;;;15.80;99.90;;;15.05;100.00;101043.41;4118947;28;20038;-75
2022/08/18 01:26:03;;;;;;;48.33;32.90;;;15.80;99.90;;;15.04;100.00;101044.41;4125985;28;20031;-75
2022/08/18 01:28:05;;;;;;;56.30;34.55;;;15.80;99.90;;;15.03;100.00;101055.19;4134678;28;20035;-75
2022/08/18 01:30:12;;;;;;;51.65;32.42;;;15.80;99.90;;;15.06;100.00;101046.88;4134894;28;20521;-76
2022/08/18 01:32:21;;;;;;;56.00;32.15;;;15.80;99.90;;;15.11;100.00;101061.28;4119357;28;20028;-75
2022/08/18 01:34:26;;;;;;;50.92;32.95;;;15.80;99.90;;;14.92;100.00;101035.19;4134444;28;20536;-75
2022/08/18 01:36:28;;;;;;;48.13;32.47;;;15.80;99.90;;;14.96;100.00;101033.84;4134375;28;20026;-75
2022/08/18 01:38:30;;;;;;;47.22;31.98;;;15.70;99.90;;;14.91;100.00;101028.22;4150729;28;20040;-75
2022/08/18 01:40:32;;;;;;;48.22;31.17;;;15.70;99.90;;;15.01;100.00;101054.56;4135707;28;20023;-75
2022/08/18 01:42:34;;;;;;;65.60;34.22;;;15.70;99.90;;;14.98;100.00;101058.38;4135948;28;20478;-75
2022/08/18 01:44:35;;;;;;;55.45;32.53;;;15.70;99.90;;;14.93;100.00;101047.47;4135546;28;20089;-75
2022/08/18 01:46:40;;;;;;;54.67;33.53;;;15.60;99.90;;;14.99;100.00;101054.75;4134559;28;20030;-75
2022/08/18 01:48:42;;;;;;;50.10;32.05;;;15.70;99.90;;;14.99;100.00;101053.91;4134210;28;20022;-75
2022/08/18 01:50:44;;;;;;;50.13;33.42;;;15.70;99.90;;;14.92;100.00;101051.97;4135632;28;20030;-75
2022/08/18 01:52:46;;;;;;;52.78;32.58;;;15.70;99.90;;;14.82;100.00;101034.59;4135625;28;20485;-75
2022/08/18 01:54:48;;;;;;;44.63;31.40;;;15.60;99.90;;;14.93;100.00;101069.53;4138661;28;20042;-75
2022/08/18 01:56:52;;;;;;;48.60;30.48;;;15.60;99.90;;;14.77;100.00;101042.25;4137306;28;20375;-75
2022/08/18 01:58:54;;;;;;;44.97;30.02;;;15.60;99.90;;;14.80;100.00;101052.53;4138466;28;20022;-75
2022/08/18 02:00:57;;;;;;;53.28;33.22;;;15.50;99.90;;;14.91;100.00;101070.72;4120897;28;20023;-75
2022/08/18 02:03:00;;;;;;;48.50;30.40;;;15.60;99.90;;;14.87;100.00;101058.81;4121117;28;20027;-75
2022/08/18 02:05:12;;;;;;;52.33;31.85;;;15.60;99.90;;;14.81;100.00;101051.53;4121014;28;20027;-75
2022/08/18 02:07:13;;;;;;;57.80;32.10;;;15.60;99.90;;;14.87;100.00;101064.13;4121164;28;20045;-75
2022/08/18 02:09:14;;;;;;;48.38;30.50;;;15.60;99.90;;;14.67;100.00;101029.19;4133832;28;20512;-75
2022/08/18 02:11:16;;;;;;;54.97;31.80;;;15.50;99.90;;;14.84;100.00;101070.59;4122200;28;20034;-75
2022/08/18 02:13:17;;;;;;;48.50;31.58;;;15.50;99.90;;;14.85;100.00;101074.06;4122228;28;20023;-75
2022/08/18 02:15:18;;;;;;;48.97;32.45;;;15.50;99.90;;;14.75;100.00;101050.41;4122106;28;20089;-75
2022/08/18 02:17:19;;;;;;;47.47;29.35;;;15.50;99.90;;;14.73;100.00;101048.91;4121063;28;20027;-75
2022/08/18 02:19:20;;;;;;;47.95;31.15;;;15.50;99.90;;;14.74;100.00;101050.56;4121688;28;20045;-75
2022/08/18 02:21:22;;;;;;;47.33;31.95;;;15.60;99.90;;;14.76;100.00;101043.25;4120965;28;20043;-75
2022/08/18 02:23:24;;;;;;;59.08;33.42;;;15.60;99.90;;;14.83;100.00;101063.63;4133793;28;20022;-75
2022/08/18 02:25:25;;;;;;;50.20;30.55;;;15.60;99.90;;;14.92;100.00;101067.06;4129493;28;20073;-75
2022/08/18 02:27:27;;;;;;;48.20;31.67;;;15.70;99.90;;;14.97;100.00;101064.69;4121028;28;20035;-75
2022/08/18 02:29:28;;;;;;;47.40;30.80;;;15.70;99.90;;;15.03;100.00;101065.81;4121855;28;20118;-75
2022/08/18 02:31:29;;;;;;;47.35;31.20;;;15.80;99.90;;;15.04;100.00;101064.81;4121737;28;20505;-75
2022/08/18 02:33:30;;;;;;;44.78;32.80;;;15.80;99.90;;;15.20;100.00;101080.66;4121806;28;20037;-75
2022/08/18 02:35:32;;;;;;;43.63;30.95;;;15.90;99.90;;;15.08;100.00;101064.31;4111520;28;20061;-75
2022/08/18 02:37:33;;;;;;;43.70;30.25;;;15.90;99.90;;;15.09;100.00;101067.78;4137886;28;20038;-75
2022/08/18 02:39:36;;;;;;;44.70;30.70;;;15.90;99.90;;;15.10;100.00;101056.16;4136584;28;20405;-75
2022/08/18 02:41:37;;;;;;;40.05;30.42;;;15.90;99.90;;;14.99;100.00;101045.94;4136689;28;20041;-75
2022/08/18 02:43:40;;;;;;;42.50;30.42;;;15.90;99.90;;;15.16;100.00;101064.25;4137811;28;20490;-75
2022/08/18 02:45:41;;;;;;;40.50;30.13;;;15.90;99.90;;;15.07;100.00;101044.03;4136587;28;20562;-75
2022/08/18 02:47:43;;;;;;;44.25;30.70;;;15.90;99.90;;;15.26;100.00;101067.47;4136030;28;20041;-75
2022/08/18 02:49:44;;;;;;;47.80;30.73;;;15.90;99.90;;;15.29;100.00;101074.28;4136632;28;20422;-75
2022/08/18 02:51:45;;;;;;;47.30;32.22;;;15.90;99.90;;;15.29;100.00;101063.66;4137895;28;20035;-75
2022/08/18 02:53:47;;;;;;;41.85;29.83;;;16.00;99.90;;;15.23;100.00;101057.19;4136636;28;20371;-75
2022/08/18 02:55:48;;;;;;;44.35;30.08;;;16.00;99.90;;;15.34;100.00;101066.59;4137643;28;20038;-75
2022/08/18 02:57:49;;;;;;;45.20;28.88;;;16.10;99.90;;;15.47;100.00;101080.16;4136669;28;20089;-75
2022/08/18 02:59:50;;;;;;;43.95;30.48;;;16.10;99.90;;;15.47;100.00;101082.81;4137556;28;20018;-75
2022/08/18 03:01:54;;;;;;;47.72;31.33;;;16.20;99.90;;;15.41;100.00;101065.69;4120286;28;20023;-75
2022/08/18 03:03:57;;;;;;;50.38;32.38;;;16.20;99.90;;;15.50;100.00;101083.25;4135906;28;20110;-75
2022/08/18 03:05:58;;;;;;;48.50;31.30;;;16.20;99.90;;;15.44;100.00;101061.88;4120744;28;20121;-75
2022/08/18 03:07:59;;;;;;;46.17;30.58;;;16.30;99.90;;;15.49;100.00;101063.00;4130945;28;20517;-75
2022/08/18 03:10:00;;;;;;;46.60;33.08;;;16.30;99.90;;;15.65;100.00;101083.28;4126540;28;20499;-75
2022/08/18 03:12:02;;;;;;;44.28;30.67;;;16.30;99.90;;;15.56;100.00;101048.97;4119962;28;20034;-75
2022/08/18 03:14:07;;;;;;;44.08;31.52;;;16.30;99.90;;;15.71;100.00;101076.44;4120447;28;20038;-75
2022/08/18 03:16:08;;;;;;;41.47;29.15;;;16.40;99.90;;;15.77;100.00;101084.50;4111546;28;20030;-75
2022/08/18 03:18:11;;;;;;;40.97;29.50;;;16.40;99.90;;;15.76;100.00;101079.38;4119502;28;20409;-75
2022/08/18 03:20:12;;;;;;;40.28;29.55;;;16.50;99.90;;;15.73;100.00;101067.25;4121009;28;20035;-75
2022/08/18 03:22:14;;;;;;;44.55;30.08;;;16.50;99.90;;;15.89;100.00;101079.53;4121082;28;20033;-75
2022/08/18 03:24:16;;;;;;;46.42;29.48;;;16.50;99.90;;;15.75;100.00;101057.25;4121079;28;20170;-75
2022/08/18 03:26:19;;;;;;;44.15;29.10;;;16.50;99.90;;;15.69;100.00;101042.03;4119616;28;20022;-75
2022/08/18 03:28:21;;;;;;;45.78;30.58;;;16.50;99.90;;;15.72;100.00;101046.97;4117577;28;20035;-75
2022/08/18 03:30:22;;;;;;;42.63;30.55;;;16.50;99.90;;;15.75;100.00;101053.75;4123496;28;20113;-75
2022/08/18 03:32:23;;;;;;;38.45;27.35;;;16.50;99.90;;;15.85;100.00;101073.78;4137036;28;20497;-75
2022/08/18 03:34:24;;;;;;;36.45;28.92;;;16.50;99.90;;;15.70;100.00;101064.13;4135452;28;20026;-75
2022/08/18 03:36:30;;;;;;;44.25;30.67;;;16.50;99.90;;;15.65;100.00;101045.25;4136933;28;20064;-75
2022/08/18 03:38:32;;;;;;;42.30;30.45;;;16.50;99.90;;;15.73;100.00;101055.78;4137293;28;20019;-75
2022/08/18 03:40:33;;;;;;;38.03;29.35;;;16.50;99.90;;;15.72;100.00;101059.44;4135729;28;20050;-75
2022/08/18 03:42:34;;;;;;;42.65;31.58;;;16.50;99.90;;;15.81;100.00;101076.97;4135690;28;20098;-75
2022/08/18 03:44:36;;;;;;;40.83;31.52;;;16.50;99.90;;;15.79;100.00;101076.34;4151917;28;20555;-75
2022/08/18 03:46:42;;;;;;;40.40;27.90;;;16.50;99.90;;;15.71;100.00;101060.47;4135709;28;20109;-75
2022/08/18 03:48:45;;;;;;;40.67;30.23;;;16.50;99.90;;;15.79;100.00;101071.03;4135388;28;20037;-75
2022/08/18 03:50:47;;;;;;;43.40;29.33;;;16.50;99.90;;;15.73;100.00;101061.13;4136783;28;20398;-75
2022/08/18 03:52:48;;;;;;;42.70;30.10;;;16.50;99.90;;;15.74;100.00;101055.59;4135472;28;20792;-75
2022/08/18 03:54:48;;;;;;;35.40;24.98;;;16.50;99.90;;;15.70;100.00;101056.97;4135419;28;20073;-75
2022/08/18 03:56:49;;;;;;;41.95;28.77;;;16.50;99.90;;;15.80;100.00;101073.50;4135402;28;20424;-75
2022/08/18 03:58:58;;;;;;;42.65;29.20;;;16.50;99.90;;;15.74;100.00;101073.41;4135889;28;20079;-75
2022/08/18 04:01:00;;;;;;;41.75;30.13;;;16.40;99.90;;;15.52;100.00;101039.72;4135493;28;20464;-75
2022/08/18 04:03:02;;;;;;;39.08;28.17;;;16.40;99.90;;;15.49;100.00;101054.19;4136370;28;20469;-75
2022/08/18 04:05:04;;;;;;;41.75;28.20;;;16.30;99.90;;;15.41;100.00;101052.38;4135393;28;20031;-75
2022/08/18 04:07:13;;;;;;;38.90;26.95;;;16.20;99.90;;;15.39;100.00;101054.41;4136574;28;20038;-75
2022/08/18 04:09:15;;;;;;;39.78;27.50;;;16.20;99.90;;;15.44;100.00;101078.63;4106430;28;20054;-75
2022/08/18 04:11:16;;;;;;;40.25;26.73;;;16.10;99.90;;;15.35;100.00;101070.91;4116484;28;20476;-75
2022/08/18 04:13:17;;;;;;;44.58;29.90;;;16.10;99.90;;;15.23;100.00;101045.75;4136450;28;20034;-75
2022/08/18 04:15:18;;;;;;;43.70;29.65;;;16.00;99.90;;;15.31;100.00;101069.59;4136207;28;20398;-75
2022/08/18 04:17:23;;;;;;;49.78;30.40;;;16.00;99.90;;;15.30;100.00;101071.44;4134949;28;20034;-75
2022/08/18 04:19:25;;;;;;;47.92;30.17;;;16.00;99.90;;;15.26;100.00;101067.47;4136585;28;20482;-75
2022/08/18 04:21:26;;;;;;;44.90;29.98;;;15.90;99.90;;;15.20;100.00;101070.03;4136596;28;20030;-75
2022/08/18 04:23:27;;;;;;;51.15;31.20;;;15.90;99.90;;;15.21;100.00;101067.19;4136209;28;20085;-75
2022/08/18 04:25:29;;;;;;;51.78;31.27;;;15.80;99.90;;;15.12;100.00;101059.44;4127284;28;20031;-75
2022/08/18 04:27:30;;;;;;;49.50;30.33;;;15.90;99.90;;;15.04;100.00;101059.50;4120217;28;20038;-75
2022/08/18 04:29:31;;;;;;;41.20;27.65;;;15.90;99.90;;;15.09;100.00;101071.25;4120317;28;20486;-75
2022/08/18 04:31:31;;;;;;;55.90;33.15;;;15.80;99.90;;;15.01;100.00;101060.69;4135089;28;20036;-75
2022/08/18 04:33:33;;;;;;;55.97;33.22;;;15.80;99.90;;;15.08;100.00;101077.59;4118808;28;20061;-75
2022/08/18 04:35:33;;;;;;;45.40;28.23;;;15.80;99.90;;;15.04;100.00;101065.66;4120097;28;20030;-75
2022/08/18 04:37:37;;;;;;;48.22;31.00;;;15.80;99.90;;;15.00;100.00;101069.66;4120082;28;20479;-75
2022/08/18 04:39:38;;;;;;;59.50;33.72;;;15.80;99.90;;;14.96;100.00;101058.56;4120018;28;20030;-75
2022/08/18 04:41:42;;;;;;;52.63;33.15;;;15.80;99.90;;;15.10;100.00;101090.69;4118697;28;20026;-75
2022/08/18 04:43:43;;;;;;;53.28;32.67;;;15.80;99.90;;;15.05;100.00;101083.25;4120000;28;20062;-75
2022/08/18 04:45:45;;;;;;;53.22;31.55;;;15.80;99.90;;;15.16;100.00;101097.94;4120139;28;20031;-75
2022/08/18 04:47:46;;;;;;;61.17;34.92;;;15.80;99.90;;;15.03;100.00;101085.25;4119719;28;20066;-75
2022/08/18 04:49:47;;;;;;;49.53;31.08;;;15.80;99.90;;;15.18;100.00;101107.41;4118711;28;20426;-75
2022/08/18 04:53:43;;;;;;;57.83;33.40;;;15.80;99.90;;;15.03;100.00;101082.59;4119011;28;20034;-75
2022/08/18 04:54:11;;;;;;;64.32;33.88;;;15.80;99.90;;;15.17;100.00;101102.28;4119893;28;20105;-75
2022/08/18 04:56:25;;;;;;;56.13;32.08;;;15.90;99.90;;;15.10;100.00;101085.38;4118671;28;20553;-75
2022/08/18 04:58:26;;;;;;;44.63;31.35;;;15.90;99.90;;;15.16;100.00;101101.44;4120024;28;20030;-75
2022/08/18 05:00:27;;;;;;;45.28;28.55;;;15.90;99.90;;;15.14;100.00;101095.47;4118934;28;20027;-75
2022/08/18 05:02:30;;;;;;;47.35;27.70;;;15.90;99.90;;;15.17;100.00;101091.66;4118374;28;20019;-75
2022/08/18 05:04:31;;;;;;;53.30;31.17;;;15.90;99.90;;;15.22;100.00;101082.13;4107964;28;20027;-75
2022/08/18 05:06:32;;;;;;;56.47;32.95;;;16.00;99.90;;;15.34;100.00;101104.63;4119920;28;20050;-75
2022/08/18 05:08:33;;;;;;;53.95;32.40;;;16.10;99.90;;;15.39;100.00;101109.41;4118664;28;20371;-75
2022/08/18 05:10:35;;;;;;;48.10;29.80;;;16.10;99.90;;;15.53;100.00;101118.47;4116397;28;20019;-75
2022/08/18 05:12:35;;;;;;;46.13;31.05;;;16.20;99.90;;;15.40;100.00;101095.94;4136147;28;20482;-75
2022/08/18 05:14:36;;;;;;;49.85;31.17;;;16.20;99.90;;;15.40;100.00;101095.94;4135963;28;20019;-75
2022/08/18 05:16:38;;;;;;;44.53;29.52;;;16.20;99.90;;;15.54;100.00;101104.16;4134756;28;20081;-74
2022/08/18 05:18:39;;;;;;;57.05;32.42;;;16.20;99.90;;;15.48;100.00;101095.06;4135533;28;20034;-75
2022/08/18 05:20:42;;;;;;;44.25;28.85;;;16.30;99.90;;;15.46;100.00;101100.53;4135896;28;20034;-75
2022/08/18 05:22:44;;;;;;;57.88;34.97;;;16.30;99.90;;;15.52;100.00;101092.88;4135823;28;20046;-75
2022/08/18 05:24:46;;;;;;;53.50;33.47;;;16.30;99.90;;;15.68;100.00;101119.34;4132543;28;20038;-75
2022/08/18 05:26:51;;;;;;;50.08;33.17;;;16.30;99.90;;;15.66;100.00;101113.34;4118428;28;20095;-75
2022/08/18 05:28:52;;;;;;;44.42;30.50;;;16.40;99.90;;;15.64;100.00;101113.56;4120404;28;20426;-75
2022/08/18 05:30:53;;;;;;;46.17;31.35;;;16.30;99.90;;;15.62;100.00;101118.22;4121231;28;20033;-75
2022/08/18 05:32:54;;;;;;;47.63;32.05;;;16.30;99.90;;;15.72;100.00;101131.25;4105508;28;20035;-75
2022/08/18 05:34:55;;;;;;;49.72;32.80;;;16.30;99.90;;;15.65;100.00;101114.38;4122522;28;20031;-75
2022/08/18 05:37:26;;;;;;;49.20;33.88;;;16.40;99.90;;;15.76;100.00;101127.25;4125533;28;20023;-75
2022/08/18 05:39:57;;;;;;;55.50;33.67;;;16.40;99.90;;;15.81;100.00;101125.69;4138777;28;20517;-75
2022/08/18 05:42:07;;;;;;;51.63;32.92;;;16.50;99.90;;;15.70;100.00;101099.53;4138823;28;20030;-75
2022/08/18 05:44:14;;;;;;;48.13;31.80;;;16.50;99.90;;;15.79;100.00;101119.75;4137627;28;20072;-75
2022/08/18 05:46:15;;;;;;;48.67;33.30;;;16.60;99.90;;;15.90;100.00;101131.75;4138524;28;20030;-75
2022/08/18 05:48:17;;;;;;;50.42;33.05;;;16.60;99.90;;;15.81;100.00;101122.19;4137387;28;20501;-75
2022/08/18 05:50:19;;;;;;;46.15;31.95;;;16.60;99.90;;;16.06;100.00;101144.91;4137146;28;20033;-75
2022/08/18 05:52:39;;;;;;;45.65;31.77;;;16.70;99.90;;;16.10;100.00;101146.19;4137270;28;20026;-75
2022/08/18 05:57:19;;;;;;;49.20;32.97;;;16.80;99.90;;;16.03;100.00;101126.66;4137565;28;20041;-76
2022/08/18 05:59:30;;;;;;;45.65;32.38;;;16.80;99.90;;;16.03;100.00;101126.66;4117990;28;20502;-75
2022/08/18 06:01:43;;;;;;;44.78;31.33;;;16.80;99.90;;;16.10;100.00;101124.09;4111040;28;20030;-75
2022/08/18 06:04:05;;;;;;;47.92;32.03;;;16.90;99.90;;;16.28;100.00;101157.31;4121707;28;20457;-75
2022/08/18 06:06:14;;;;;;;47.70;32.95;;;16.90;99.90;;;16.24;100.00;101149.88;4093462;28;20035;-75
2022/08/18 06:08:18;;;;;;;44.67;31.17;;;17.00;99.90;;;16.22;100.00;101131.41;4121065;28;20030;-75
2022/08/18 06:10:20;;;;;;;45.63;31.95;;;17.00;99.90;;;16.19;100.00;101123.00;4120970;28;20071;-75
2022/08/18 06:12:33;;;;;;;41.45;30.58;;;17.00;99.90;;;16.33;100.00;101154.13;4121936;28;20038;-75
2022/08/18 06:14:37;;;;;;;39.72;29.45;;;17.00;99.90;;;16.29;100.00;101143.00;4120633;28;20031;-75
2022/08/18 06:16:53;;;;;;;41.00;29.90;;;17.00;99.90;;;16.45;100.00;101163.31;4133795;28;20038;-75
2022/08/18 06:19:02;;;;;;;43.40;31.50;;;17.10;99.90;;;16.49;100.00;101162.72;4137730;28;20042;-75
2022/08/18 06:21:09;;;;;;;36.13;27.63;;;17.10;99.90;;;16.50;100.00;101164.41;4138165;28;20521;-75
2022/08/18 06:23:35;;;;;;;42.90;31.08;;;17.20;99.90;;;16.53;100.00;101174.69;4137938;28;20027;-75
2022/08/18 06:26:09;;;;;;;40.65;30.90;;;17.20;99.90;;;16.56;100.00;101171.69;4128096;28;20430;-75
2022/08/18 06:28:15;;;;;;;42.97;28.63;;;17.20;99.90;;;16.54;100.00;101157.72;4120855;28;20109;-75
2022/08/18 06:30:31;;;;;;;37.15;29.23;;;17.30;99.90;;;16.53;100.00;101153.38;4120804;28;20042;-75
2022/08/18 06:33:13;;;;;;;39.55;29.33;;;17.40;99.90;;;16.74;100.00;101183.78;4122408;28;20027;-75
2022/08/18 06:35:35;;;;;;;42.65;30.13;;;17.50;99.90;;;16.59;100.00;101168.66;4137908;28;20114;-75
2022/08/18 06:40:12;;;;;;;45.10;31.25;;;17.50;99.90;;;16.85;100.00;101185.97;4136557;28;20061;-75
2022/08/18 06:42:20;;;;;;;41.78;32.08;;;17.60;99.90;;;16.90;100.00;101188.94;4137845;28;20022;-75
2022/08/18 06:44:27;;;;;;;42.50;30.65;;;17.60;99.90;;;16.99;100.00;101188.63;4137937;28;20125;-75
2022/08/18 06:46:41;;;;;;;42.38;32.22;;;17.70;99.90;;;16.96;100.00;101181.03;4131480;28;20026;-75
2022/08/18 06:49:08;;;;;;;35.90;28.20;;;17.70;99.90;;;16.96;100.00;101162.38;4121505;28;20086;-75
2022/08/18 06:51:20;;;;;;;37.40;27.52;;;17.80;99.90;;;17.15;100.00;101172.41;4115481;28;20092;-74
2022/08/18 06:53:21;;;;;;;37.70;28.23;;;17.80;99.90;;;17.09;100.00;101157.16;4120815;28;20035;-75
2022/08/18 06:55:33;;;;;;;40.90;31.27;;;17.80;99.90;;;17.20;100.00;101179.03;4119972;28;20115;-75
2022/08/18 06:57:38;;;;;;;37.53;29.70;;;17.80;99.90;;;17.00;100.00;101162.78;4120721;28;20035;-75
2022/08/18 06:59:39;;;;;;;38.53;30.05;;;17.80;99.90;;;16.99;100.00;101158.50;4108216;28;20025;-74
2022/08/18 07:01:42;;;;;;;38.28;29.30;;;17.70;99.90;;;16.97;100.00;101147.16;4119622;28;20109;-74
2022/08/18 07:03:55;;;;;;;32.92;26.10;;;17.70;99.90;;;17.15;100.00;101167.06;4120378;28;20023;-74
2022/08/18 07:06:22;;;;;;;38.38;29.45;;;17.70;99.90;;;17.12;100.00;101161.28;4135379;28;20133;-74
2022/08/18 07:08:42;;;;;;;38.38;29.40;;;17.70;99.90;;;17.00;100.00;101152.97;4126781;28;20023;-74
2022/08/18 07:10:51;;;;;;;41.58;30.48;;;17.80;99.90;;;17.03;100.00;101167.75;4120120;28;20506;-74
2022/08/18 07:13:24;;;;;;;36.40;28.95;;;17.80;99.90;;;17.17;100.00;101184.72;4121235;28;20085;-74
2022/08/18 07:15:25;;;;;;;33.47;25.92;;;17.80;99.90;;;17.19;100.00;101166.69;4119895;28;20082;-74
2022/08/18 07:17:37;;;;;;;34.42;27.00;;;17.90;99.90;;;17.33;100.00;101179.97;4119976;28;20033;-75
2022/08/18 07:19:38;;;;;;;36.28;27.63;;;17.90;99.90;;;17.31;100.00;101165.19;4120000;28;20035;-74
2022/08/18 07:21:39;;;;;;;35.38;26.55;;;18.00;99.90;;;17.43;100.00;101174.34;4104171;29;20061;-74
2022/08/18 07:23:43;;;;;;;39.55;29.02;;;18.00;99.90;;;17.29;100.00;101164.56;4119775;28;20026;-74
2022/08/18 07:25:47;;;;;;;28.90;24.63;;;18.10;99.90;;;17.36;100.00;101155.59;4125461;28;20034;-74
2022/08/18 07:27:49;;;;;;;;;;;18.10;99.90;;;17.32;100.00;101141.03;4136322;28;20426;-74
2022/08/18 07:30:24;;;;;;;37.35;27.58;;;18.10;99.90;;;17.54;100.00;101172.03;4135801;28;19945;-74
2022/08/18 07:32:54;;;;;;;34.22;27.05;;;18.20;99.90;;;17.59;100.00;101185.59;4135884;28;20041;-73
2022/08/18 07:34:59;;;;;;;35.45;27.98;;;18.30;99.90;;;17.50;100.00;101165.38;4136760;28;20027;-74
2022/08/18 07:37:22;;;;;;;39.70;28.88;;;18.30;99.90;;;17.57;100.00;101158.31;4135807;28;20066;-74
2022/08/18 07:39:54;;;;;;;32.05;25.02;;;18.40;99.90;;;17.67;100.00;101171.31;4120016;28;20418;-74
2022/08/18 07:42:05;;;;;;;35.85;26.75;;;18.40;99.90;;;17.89;100.00;101198.84;4132757;28;20469;-75
2022/08/18 07:44:53;;;;;;;30.75;23.83;;;18.50;99.90;;;17.98;100.00;101193.13;4135596;28;20050;-75
2022/08/18 07:47:11;;;;;;;28.80;22.40;;;18.50;99.90;;;17.99;100.00;101205.47;4135781;28;20589;-75
2022/08/18 07:49:26;;;;;;;32.88;23.63;;;18.60;99.90;;;17.86;100.00;101178.66;4135729;28;20066;-75
2022/08/18 07:51:47;;;;;;;31.17;22.02;;;18.60;99.90;;;18.16;100.00;101203.34;4127705;28;20030;-75
2022/08/18 07:54:30;;;;;;;28.42;22.00;;;18.70;99.90;;;18.18;100.00;101190.63;4136696;28;20026;-75
2022/08/18 07:57:03;;;;;;;21.55;18.77;;;18.80;99.90;;;18.56;100.00;101202.63;4135805;28;20026;-75
2022/08/18 07:59:23;;;;;;;20.70;17.85;;;19.00;99.90;;;19.17;100.00;101224.94;4135575;28;20085;-75
2022/08/18 08:01:33;;;;;;;20.88;16.67;;;19.40;99.90;;;19.46;100.00;101231.84;4136753;28;20054;-75
2022/08/18 08:03:33;;;;;;;19.67;17.10;;;19.80;99.90;;;19.64;100.00;101232.09;4136456;28;20030;-75
2022/08/18 08:05:47;;;;;;;26.77;19.45;;;20.10;99.90;;;19.81;100.00;101230.66;4132228;28;20034;-75
2022/08/18 08:08:16;;;;;;;19.83;16.60;;;20.30;99.90;;;19.79;100.00;101235.41;4108482;28;20416;-75
2022/08/18 08:10:42;;;;;;;19.40;16.75;;;20.50;99.90;;;19.84;100.00;101227.56;4119345;28;20270;-75
2022/08/18 08:13:04;;;;;;;21.40;16.58;;;20.70;99.90;;;20.09;100.00;101254.59;4120582;28;20015;-75
2022/08/18 08:15:35;;;;;;;18.38;15.05;;;20.80;99.90;;;20.42;100.00;101251.94;4120283;28;20035;-75
2022/08/18 08:18:24;;;;;;;21.73;16.65;;;21.00;99.90;;;20.39;100.00;101237.09;4116160;28;20038;-75
2022/08/18 08:20:36;;;;;;;24.15;16.15;;;21.10;99.90;;;20.48;100.00;101251.09;4119147;28;20161;-75
2022/08/18 08:22:53;;;;;;;19.50;16.95;;;21.20;99.90;;;20.21;100.00;101255.63;4119851;28;20030;-75
2022/08/18 08:25:14;;;;;;;19.50;16.88;;;21.10;99.90;;;20.04;100.00;101253.56;4119128;28;20081;-75
2022/08/18 08:27:43;;;;;;;25.27;21.25;;;21.00;99.90;;;19.59;100.00;101223.03;4108997;28;20027;-75
2022/08/18 08:29:56;;;;;;;21.80;17.73;;;20.80;99.90;;;19.82;100.00;101244.88;4120227;28;20371;-75
2022/08/18 08:32:04;;;;;;;20.75;17.67;;;20.70;99.90;;;19.91;100.00;101242.81;4120198;28;20034;-75
2022/08/18 08:34:24;;;;;;;18.02;15.85;;;20.70;99.90;;;20.06;100.00;101251.50;4119848;28;20041;-75
2022/08/18 08:36:38;;;;;;;19.95;15.93;;;20.70;99.90;;;19.57;100.00;101222.38;4119990;28;20073;-75
2022/08/18 08:39:20;;;;;;;20.25;16.88;;;20.70;99.90;;;19.66;100.00;101255.97;4119211;28;20030;-75
2022/08/18 08:41:54;;;;;;;17.77;15.25;;;20.60;99.90;;;19.70;100.00;101262.56;4122681;28;20031;-75